sensor_id;sensor_type;location;lat;lon;timestamp;temperature;humidity
41924;DHT22;27613;48.116;11.656;2022-09-14T00:01:56;17.90;99.90
41924;DHT22;27613;48.116;11.656;2022-09-14T00:04:22;17.80;99.90
41924;DHT22;27613;48.116;11.656;2022-09-14T00:06:48;17.60;99.90
41924;DHT22;27613;48.116;11.656;2022-09-14T00:09:17;17.70;99.90
41924;DHT22;27613;48.116;11.656;2022-09-14T00:11:43;17.70;99.90
41924;DHT22;27613;48.116;11.656;2022-09-14T00:14:09;17.60;99.90
41924;DHT22;27613;48.116;11.656;2022-09-14T00:16:37;17.50;99.90
41924;DHT22;27613;48.116;11.656;2022-09-14T00:19:18;17.60;99.90
41924;DHT22;27613;48.116;11.656;2022-09-14T00:21:44;17.60;99.90
41924;DHT22;27613;48.116;11.656;2022-09-14T00:24:10;17.70;99.90
41924;DHT22;27613;48.116;11.656;2022-09-14T00:26:36;17.70;99.90
41924;DHT22;27613;48.116;11.656;2022-09-14T00:29:03;17.70;99.90
41924;DHT22;27613;48.116;11.656;2022-09-14T00:31:31;17.70;99.90
41924;DHT22;27613;48.116;11.656;2022-09-14T00:33:57;17.80;99.90
41924;DHT22;27613;48.116;11.656;2022-09-14T00:36:25;17.80;99.90
41924;DHT22;27613;48.116;11.656;2022-09-14T00:38:51;17.90;99.90
41924;DHT22;27613;48.116;11.656;2022-09-14T00:41:28;17.90;99.90
41924;DHT22;27613;48.116;11.656;2022-09-14T00:44:03;17.90;99.90
41924;DHT22;27613;48.116;11.656;2022-09-14T00:46:38;18.00;99.90
41924;DHT22;27613;48.116;11.656;2022-09-14T00:49:09;18.00;99.90
41924;DHT22;27613;48.116;11.656;2022-09-14T00:51:36;18.00;99.90
41924;DHT22;27613;48.116;11.656;2022-09-14T00:54:04;17.90;99.90
41924;DHT22;27613;48.116;11.656;2022-09-14T00:56:32;17.90;99.90
41924;DHT22;27613;48.116;11.656;2022-09-14T00:59:02;17.90;99.90
41924;DHT22;27613;48.116;11.656;2022-09-14T01:01:29;17.90;99.90
41924;DHT22;27613;48.116;11.656;2022-09-14T01:03:55;17.80;99.90
41924;DHT22;27613;48.116;11.656;2022-09-14T01:06:33;17.70;99.90
41924;DHT22;27613;48.116;11.656;2022-09-14T01:14:31;17.50;99.90
41924;DHT22;27613;48.116;11.656;2022-09-14T01:17:17;17.50;99.90
41924;DHT22;27613;48.116;11.656;2022-09-14T01:22:30;17.60;99.90
41924;DHT22;27613;48.116;11.656;2022-09-14T01:28:11;17.60;99.90
41924;DHT22;27613;48.116;11.656;2022-09-14T01:30:40;17.70;99.90
41924;DHT22;27613;48.116;11.656;2022-09-14T01:33:28;17.70;99.90
41924;DHT22;27613;48.116;11.656;2022-09-14T01:35:57;17.70;99.90
41924;DHT22;27613;48.116;11.656;2022-09-14T01:38:26;17.60;99.90
41924;DHT22;27613;48.116;11.656;2022-09-14T01:40:55;17.60;99.90
41924;DHT22;27613;48.116;11.656;2022-09-14T01:43:30;17.50;99.90
41924;DHT22;27613;48.116;11.656;2022-09-14T01:48:38;17.30;99.90
41924;DHT22;27613;48.116;11.656;2022-09-14T01:51:09;17.30;99.90
41924;DHT22;27613;48.116;11.656;2022-09-14T01:53:43;17.40;99.90
41924;DHT22;27613;48.116;11.656;2022-09-14T01:56:20;17.40;99.90
41924;DHT22;27613;48.116;11.656;2022-09-14T02:01:39;17.50;99.90
41924;DHT22;27613;48.116;11.656;2022-09-14T02:04:10;17.50;99.90
41924;DHT22;27613;48.116;11.656;2022-09-14T02:06:47;17.50;99.90
41924;DHT22;27613;48.116;11.656;2022-09-14T02:09:17;17.30;99.90
41924;DHT22;27613;48.116;11.656;2022-09-14T02:11:44;17.20;99.90
41924;DHT22;27613;48.116;11.656;2022-09-14T02:14:10;17.20;99.90
41924;DHT22;27613;48.116;11.656;2022-09-14T02:16:36;17.30;99.90
41924;DHT22;27613;48.116;11.656;2022-09-14T02:19:08;17.30;99.90
41924;DHT22;27613;48.116;11.656;2022-09-14T02:21:34;17.30;99.90
41924;DHT22;27613;48.116;11.656;2022-09-14T02:24:00;17.20;99.90
41924;DHT22;27613;48.116;11.656;2022-09-14T02:26:27;17.30;99.90
41924;DHT22;27613;48.116;11.656;2022-09-14T02:28:52;17.30;99.90
41924;DHT22;27613;48.116;11.656;2022-09-14T02:31:47;17.30;99.90
41924;DHT22;27613;48.116;11.656;2022-09-14T02:34:32;17.30;99.90
41924;DHT22;27613;48.116;11.656;2022-09-14T02:45:42;17.30;99.90
41924;DHT22;27613;48.116;11.656;2022-09-14T02:48:19;17.40;99.90
41924;DHT22;27613;48.116;11.656;2022-09-14T02:53:43;17.30;99.90
41924;DHT22;27613;48.116;11.656;2022-09-14T02:56:11;17.30;99.90
41924;DHT22;27613;48.116;11.656;2022-09-14T02:58:42;17.30;99.90
41924;DHT22;27613;48.116;11.656;2022-09-14T03:01:15;17.40;99.90
41924;DHT22;27613;48.116;11.656;2022-09-14T03:03:41;17.40;99.90
41924;DHT22;27613;48.116;11.656;2022-09-14T03:06:07;17.40;99.90
41924;DHT22;27613;48.116;11.656;2022-09-14T03:08:33;17.40;99.90
41924;DHT22;27613;48.116;11.656;2022-09-14T03:10:59;17.40;99.90
41924;DHT22;27613;48.116;11.656;2022-09-14T03:13:25;17.40;99.90
41924;DHT22;27613;48.116;11.656;2022-09-14T03:15:51;17.40;99.90
41924;DHT22;27613;48.116;11.656;2022-09-14T03:18:16;17.40;99.90
41924;DHT22;27613;48.116;11.656;2022-09-14T03:20:42;17.40;99.90
41924;DHT22;27613;48.116;11.656;2022-09-14T03:23:08;17.30;99.90
41924;DHT22;27613;48.116;11.656;2022-09-14T03:25:42;17.20;99.90
41924;DHT22;27613;48.116;11.656;2022-09-14T03:28:09;17.30;99.90
41924;DHT22;27613;48.116;11.656;2022-09-14T03:30:36;17.20;99.90
41924;DHT22;27613;48.116;11.656;2022-09-14T03:33:01;17.10;99.90
41924;DHT22;27613;48.116;11.656;2022-09-14T03:35:31;17.10;99.90
41924;DHT22;27613;48.116;11.656;2022-09-14T03:37:57;17.10;99.90
41924;DHT22;27613;48.116;11.656;2022-09-14T03:40:24;17.20;99.90
41924;DHT22;27613;48.116;11.656;2022-09-14T03:42:50;17.20;99.90
41924;DHT22;27613;48.116;11.656;2022-09-14T03:45:17;17.20;99.90
41924;DHT22;27613;48.116;11.656;2022-09-14T03:47:43;17.20;99.90
41924;DHT22;27613;48.116;11.656;2022-09-14T03:50:10;17.30;99.90
41924;DHT22;27613;48.116;11.656;2022-09-14T03:52:37;17.30;99.90
41924;DHT22;27613;48.116;11.656;2022-09-14T03:55:05;17.30;99.90
41924;DHT22;27613;48.116;11.656;2022-09-14T03:57:31;17.30;99.90
41924;DHT22;27613;48.116;11.656;2022-09-14T03:59:57;17.30;99.90
41924;DHT22;27613;48.116;11.656;2022-09-14T04:02:23;17.20;99.90
41924;DHT22;27613;48.116;11.656;2022-09-14T04:04:48;17.20;99.90
41924;DHT22;27613;48.116;11.656;2022-09-14T04:07:14;17.20;99.90
41924;DHT22;27613;48.116;11.656;2022-09-14T04:09:41;17.30;99.90
41924;DHT22;27613;48.116;11.656;2022-09-14T04:12:07;17.50;99.90
41924;DHT22;27613;48.116;11.656;2022-09-14T04:14:33;17.50;99.90
41924;DHT22;27613;48.116;11.656;2022-09-14T04:16:59;17.50;99.90
41924;DHT22;27613;48.116;11.656;2022-09-14T04:19:24;17.60;99.90
41924;DHT22;27613;48.116;11.656;2022-09-14T04:21:50;17.60;99.90
41924;DHT22;27613;48.116;11.656;2022-09-14T04:24:16;17.60;99.90
41924;DHT22;27613;48.116;11.656;2022-09-14T04:26:42;17.60;99.90
41924;DHT22;27613;48.116;11.656;2022-09-14T04:29:09;17.70;99.90
41924;DHT22;27613;48.116;11.656;2022-09-14T04:31:35;17.70;99.90
41924;DHT22;27613;48.116;11.656;2022-09-14T04:34:01;17.60;99.90
41924;DHT22;27613;48.116;11.656;2022-09-14T04:36:27;17.60;99.90
41924;DHT22;27613;48.116;11.656;2022-09-14T04:38:59;17.50;99.90
41924;DHT22;27613;48.116;11.656;2022-09-14T04:41:26;17.50;99.90
41924;DHT22;27613;48.116;11.656;2022-09-14T04:43:53;17.40;99.90
41924;DHT22;27613;48.116;11.656;2022-09-14T04:46:21;17.40;99.90
41924;DHT22;27613;48.116;11.656;2022-09-14T04:48:47;17.40;99.90
41924;DHT22;27613;48.116;11.656;2022-09-14T04:51:18;17.40;99.90
41924;DHT22;27613;48.116;11.656;2022-09-14T04:53:46;17.40;99.90
41924;DHT22;27613;48.116;11.656;2022-09-14T04:56:13;17.30;99.90
41924;DHT22;27613;48.116;11.656;2022-09-14T04:58:42;17.30;99.90
41924;DHT22;27613;48.116;11.656;2022-09-14T05:01:13;17.40;99.90
41924;DHT22;27613;48.116;11.656;2022-09-14T05:03:39;17.40;99.90
41924;DHT22;27613;48.116;11.656;2022-09-14T05:06:08;17.40;99.90
41924;DHT22;27613;48.116;11.656;2022-09-14T05:08:34;17.50;99.90
41924;DHT22;27613;48.116;11.656;2022-09-14T05:11:01;17.60;99.90
41924;DHT22;27613;48.116;11.656;2022-09-14T05:13:27;17.70;99.90
41924;DHT22;27613;48.116;11.656;2022-09-14T05:15:53;17.70;99.90
41924;DHT22;27613;48.116;11.656;2022-09-14T05:18:19;17.70;99.90
41924;DHT22;27613;48.116;11.656;2022-09-14T05:20:44;17.70;99.90
41924;DHT22;27613;48.116;11.656;2022-09-14T05:23:10;17.70;99.90
41924;DHT22;27613;48.116;11.656;2022-09-14T05:25:36;17.70;99.90
41924;DHT22;27613;48.116;11.656;2022-09-14T05:28:02;17.70;99.90
41924;DHT22;27613;48.116;11.656;2022-09-14T05:30:28;17.70;99.90
41924;DHT22;27613;48.116;11.656;2022-09-14T05:32:53;17.80;99.90
41924;DHT22;27613;48.116;11.656;2022-09-14T05:35:19;17.90;99.90
41924;DHT22;27613;48.116;11.656;2022-09-14T05:37:45;18.10;99.90
41924;DHT22;27613;48.116;11.656;2022-09-14T05:40:10;18.00;99.90
41924;DHT22;27613;48.116;11.656;2022-09-14T05:42:36;18.10;99.90
41924;DHT22;27613;48.116;11.656;2022-09-14T05:45:02;18.20;99.90
41924;DHT22;27613;48.116;11.656;2022-09-14T05:47:28;18.30;99.90
41924;DHT22;27613;48.116;11.656;2022-09-14T05:49:55;18.30;99.90
41924;DHT22;27613;48.116;11.656;2022-09-14T05:52:22;18.50;99.90
41924;DHT22;27613;48.116;11.656;2022-09-14T05:54:47;18.50;99.90
41924;DHT22;27613;48.116;11.656;2022-09-14T05:57:13;18.50;99.90
41924;DHT22;27613;48.116;11.656;2022-09-14T05:59:38;18.60;99.90
41924;DHT22;27613;48.116;11.656;2022-09-14T06:02:04;18.60;99.90
41924;DHT22;27613;48.116;11.656;2022-09-14T06:04:30;18.70;99.90
41924;DHT22;27613;48.116;11.656;2022-09-14T06:06:55;18.80;99.90
41924;DHT22;27613;48.116;11.656;2022-09-14T06:09:21;18.80;99.90
41924;DHT22;27613;48.116;11.656;2022-09-14T06:11:46;18.80;99.90
41924;DHT22;27613;48.116;11.656;2022-09-14T06:14:12;18.80;99.90
41924;DHT22;27613;48.116;11.656;2022-09-14T06:16:37;18.90;99.90
41924;DHT22;27613;48.116;11.656;2022-09-14T06:19:03;18.90;99.90
41924;DHT22;27613;48.116;11.656;2022-09-14T06:21:31;18.90;99.90
41924;DHT22;27613;48.116;11.656;2022-09-14T06:23:57;19.00;99.90
41924;DHT22;27613;48.116;11.656;2022-09-14T06:26:23;19.00;99.90
41924;DHT22;27613;48.116;11.656;2022-09-14T06:28:49;19.10;99.90
41924;DHT22;27613;48.116;11.656;2022-09-14T06:31:15;19.00;99.90
41924;DHT22;27613;48.116;11.656;2022-09-14T06:33:45;19.00;99.90
41924;DHT22;27613;48.116;11.656;2022-09-14T06:36:13;18.90;99.90
41924;DHT22;27613;48.116;11.656;2022-09-14T06:38:40;18.90;99.90
41924;DHT22;27613;48.116;11.656;2022-09-14T06:41:07;18.90;99.90
41924;DHT22;27613;48.116;11.656;2022-09-14T06:43:36;19.00;99.90
41924;DHT22;27613;48.116;11.656;2022-09-14T06:46:05;19.10;99.90
41924;DHT22;27613;48.116;11.656;2022-09-14T06:48:34;19.20;99.90
41924;DHT22;27613;48.116;11.656;2022-09-14T06:51:26;19.30;99.90
41924;DHT22;27613;48.116;11.656;2022-09-14T06:54:17;19.30;99.90
41924;DHT22;27613;48.116;11.656;2022-09-14T06:57:06;19.30;99.90
41924;DHT22;27613;48.116;11.656;2022-09-14T07:00:01;19.30;99.90
41924;DHT22;27613;48.116;11.656;2022-09-14T07:02:36;19.30;99.90
41924;DHT22;27613;48.116;11.656;2022-09-14T07:05:02;19.20;99.90
41924;DHT22;27613;48.116;11.656;2022-09-14T07:07:28;19.00;99.90
41924;DHT22;27613;48.116;11.656;2022-09-14T07:09:53;18.90;99.90
41924;DHT22;27613;48.116;11.656;2022-09-14T07:12:19;19.10;99.90
41924;DHT22;27613;48.116;11.656;2022-09-14T07:14:44;19.10;99.90
41924;DHT22;27613;48.116;11.656;2022-09-14T07:17:10;19.10;99.90
41924;DHT22;27613;48.116;11.656;2022-09-14T07:19:35;19.10;99.90
41924;DHT22;27613;48.116;11.656;2022-09-14T07:22:01;19.10;99.90
41924;DHT22;27613;48.116;11.656;2022-09-14T07:24:27;19.10;99.90
41924;DHT22;27613;48.116;11.656;2022-09-14T07:26:52;19.20;99.90
41924;DHT22;27613;48.116;11.656;2022-09-14T07:29:19;19.20;99.90
41924;DHT22;27613;48.116;11.656;2022-09-14T07:31:51;19.20;99.90
41924;DHT22;27613;48.116;11.656;2022-09-14T07:34:18;19.40;99.90
41924;DHT22;27613;48.116;11.656;2022-09-14T07:36:45;19.50;99.90
41924;DHT22;27613;48.116;11.656;2022-09-14T07:39:16;19.60;99.90
41924;DHT22;27613;48.116;11.656;2022-09-14T07:41:42;19.70;99.90
41924;DHT22;27613;48.116;11.656;2022-09-14T07:44:13;19.90;99.90
41924;DHT22;27613;48.116;11.656;2022-09-14T07:46:45;19.90;99.90
41924;DHT22;27613;48.116;11.656;2022-09-14T07:49:18;20.00;99.90
41924;DHT22;27613;48.116;11.656;2022-09-14T07:51:47;20.10;99.90
41924;DHT22;27613;48.116;11.656;2022-09-14T07:54:55;20.20;99.90
41924;DHT22;27613;48.116;11.656;2022-09-14T08:03:44;21.10;99.90
41924;DHT22;27613;48.116;11.656;2022-09-14T08:06:42;21.40;99.20
41924;DHT22;27613;48.116;11.656;2022-09-14T08:09:17;21.80;98.20
41924;DHT22;27613;48.116;11.656;2022-09-14T08:11:59;22.10;96.10
41924;DHT22;27613;48.116;11.656;2022-09-14T08:14:28;22.30;95.60
41924;DHT22;27613;48.116;11.656;2022-09-14T08:16:54;22.60;95.80
41924;DHT22;27613;48.116;11.656;2022-09-14T08:19:20;22.80;93.70
41924;DHT22;27613;48.116;11.656;2022-09-14T08:21:46;22.90;92.90
41924;DHT22;27613;48.116;11.656;2022-09-14T08:24:12;23.20;91.10
41924;DHT22;27613;48.116;11.656;2022-09-14T08:26:38;23.30;91.20
41924;DHT22;27613;48.116;11.656;2022-09-14T08:29:07;23.50;90.10
41924;DHT22;27613;48.116;11.656;2022-09-14T08:31:35;23.60;89.50
41924;DHT22;27613;48.116;11.656;2022-09-14T08:34:02;23.70;89.90
41924;DHT22;27613;48.116;11.656;2022-09-14T08:36:34;23.30;89.40
41924;DHT22;27613;48.116;11.656;2022-09-14T08:39:00;23.30;89.50
41924;DHT22;27613;48.116;11.656;2022-09-14T08:41:40;23.50;89.60
41924;DHT22;27613;48.116;11.656;2022-09-14T08:46:47;25.50;80.70
41924;DHT22;27613;48.116;11.656;2022-09-14T08:49:35;25.90;78.80
41924;DHT22;27613;48.116;11.656;2022-09-14T08:52:03;26.70;75.90
41924;DHT22;27613;48.116;11.656;2022-09-14T08:54:32;27.20;74.60
41924;DHT22;27613;48.116;11.656;2022-09-14T08:57:20;27.60;71.10
41924;DHT22;27613;48.116;11.656;2022-09-14T09:04:02;27.50;70.60
41924;DHT22;27613;48.116;11.656;2022-09-14T09:06:05;28.70;68.60
41924;DHT22;27613;48.116;11.656;2022-09-14T09:11:20;28.60;67.50
41924;DHT22;27613;48.116;11.656;2022-09-14T09:13:50;28.40;68.60
41924;DHT22;27613;48.116;11.656;2022-09-14T09:16:21;27.90;68.90
41924;DHT22;27613;48.116;11.656;2022-09-14T09:19:04;27.70;70.50
41924;DHT22;27613;48.116;11.656;2022-09-14T09:21:35;28.20;68.90
41924;DHT22;27613;48.116;11.656;2022-09-14T09:26:46;28.00;67.30
41924;DHT22;27613;48.116;11.656;2022-09-14T09:29:15;28.80;67.30
41924;DHT22;27613;48.116;11.656;2022-09-14T09:31:56;29.40;66.10
41924;DHT22;27613;48.116;11.656;2022-09-14T09:34:28;29.80;65.40
41924;DHT22;27613;48.116;11.656;2022-09-14T09:36:54;29.90;65.00
41924;DHT22;27613;48.116;11.656;2022-09-14T09:39:24;29.00;65.20
41924;DHT22;27613;48.116;11.656;2022-09-14T09:41:57;27.20;68.30
41924;DHT22;27613;48.116;11.656;2022-09-14T09:44:25;27.90;69.30
41924;DHT22;27613;48.116;11.656;2022-09-14T09:46:54;28.30;67.30
41924;DHT22;27613;48.116;11.656;2022-09-14T09:49:36;26.90;69.60
41924;DHT22;27613;48.116;11.656;2022-09-14T09:52:11;27.30;70.20
41924;DHT22;27613;48.116;11.656;2022-09-14T09:54:39;26.90;71.00
41924;DHT22;27613;48.116;11.656;2022-09-14T09:57:17;26.20;72.40
41924;DHT22;27613;48.116;11.656;2022-09-14T09:59:48;25.70;74.50
41924;DHT22;27613;48.116;11.656;2022-09-14T10:07:24;29.50;64.80
41924;DHT22;27613;48.116;11.656;2022-09-14T10:12:26;27.50;67.20
41924;DHT22;27613;48.116;11.656;2022-09-14T10:15:15;27.40;68.00
41924;DHT22;27613;48.116;11.656;2022-09-14T10:18:16;26.60;70.00
41924;DHT22;27613;48.116;11.656;2022-09-14T10:23:31;29.80;63.60
41924;DHT22;27613;48.116;11.656;2022-09-14T10:28:44;30.40;62.40
41924;DHT22;27613;48.116;11.656;2022-09-14T10:33:45;29.90;63.40
41924;DHT22;27613;48.116;11.656;2022-09-14T10:36:30;29.60;63.50
41924;DHT22;27613;48.116;11.656;2022-09-14T10:56:18;27.20;69.60
41924;DHT22;27613;48.116;11.656;2022-09-14T11:09:26;28.00;68.20
41924;DHT22;27613;48.116;11.656;2022-09-14T11:12:04;28.90;66.50
41924;DHT22;27613;48.116;11.656;2022-09-14T11:26:21;32.00;58.70
41924;DHT22;27613;48.116;11.656;2022-09-14T11:28:55;31.00;58.90
41924;DHT22;27613;48.116;11.656;2022-09-14T11:31:43;30.30;60.70
41924;DHT22;27613;48.116;11.656;2022-09-14T11:34:27;30.40;61.60
41924;DHT22;27613;48.116;11.656;2022-09-14T11:37:10;30.50;60.30
41924;DHT22;27613;48.116;11.656;2022-09-14T11:39:47;28.90;63.00
41924;DHT22;27613;48.116;11.656;2022-09-14T11:42:29;28.60;63.70
41924;DHT22;27613;48.116;11.656;2022-09-14T11:45:18;28.30;65.40
41924;DHT22;27613;48.116;11.656;2022-09-14T11:47:54;29.90;60.90
41924;DHT22;27613;48.116;11.656;2022-09-14T11:50:25;30.90;59.30
41924;DHT22;27613;48.116;11.656;2022-09-14T11:53:10;31.40;58.40
41924;DHT22;27613;48.116;11.656;2022-09-14T11:55:37;31.10;58.70
41924;DHT22;27613;48.116;11.656;2022-09-14T11:58:07;31.10;59.80
41924;DHT22;27613;48.116;11.656;2022-09-14T12:03:20;31.90;57.30
41924;DHT22;27613;48.116;11.656;2022-09-14T12:05:48;31.50;58.00
41924;DHT22;27613;48.116;11.656;2022-09-14T12:08:27;32.00;57.60
41924;DHT22;27613;48.116;11.656;2022-09-14T12:11:22;31.50;57.80
41924;DHT22;27613;48.116;11.656;2022-09-14T12:13:48;31.60;58.30
41924;DHT22;27613;48.116;11.656;2022-09-14T12:16:14;31.90;58.10
41924;DHT22;27613;48.116;11.656;2022-09-14T12:18:42;32.40;57.20
41924;DHT22;27613;48.116;11.656;2022-09-14T12:21:25;31.80;58.30
41924;DHT22;27613;48.116;11.656;2022-09-14T12:23:52;31.80;57.80
41924;DHT22;27613;48.116;11.656;2022-09-14T12:26:34;31.40;58.50
41924;DHT22;27613;48.116;11.656;2022-09-14T12:29:30;31.50;59.00
41924;DHT22;27613;48.116;11.656;2022-09-14T12:31:59;31.40;59.30
41924;DHT22;27613;48.116;11.656;2022-09-14T12:34:27;30.60;59.50
41924;DHT22;27613;48.116;11.656;2022-09-14T12:36:58;29.90;61.50
41924;DHT22;27613;48.116;11.656;2022-09-14T12:39:26;30.20;61.70
41924;DHT22;27613;48.116;11.656;2022-09-14T12:44:38;30.50;61.60
41924;DHT22;27613;48.116;11.656;2022-09-14T12:49:48;30.20;60.60
41924;DHT22;27613;48.116;11.656;2022-09-14T12:57:50;28.80;62.70
41924;DHT22;27613;48.116;11.656;2022-09-14T13:00:20;28.50;63.50
41924;DHT22;27613;48.116;11.656;2022-09-14T13:05:50;27.40;65.90
41924;DHT22;27613;48.116;11.656;2022-09-14T13:08:21;27.30;66.40
41924;DHT22;27613;48.116;11.656;2022-09-14T13:10:49;27.20;67.10
41924;DHT22;27613;48.116;11.656;2022-09-14T13:13:18;27.10;67.30
41924;DHT22;27613;48.116;11.656;2022-09-14T13:16:01;27.00;67.30
41924;DHT22;27613;48.116;11.656;2022-09-14T13:18:35;26.90;67.90
41924;DHT22;27613;48.116;11.656;2022-09-14T13:21:18;26.80;68.60
41924;DHT22;27613;48.116;11.656;2022-09-14T13:23:44;26.80;68.30
41924;DHT22;27613;48.116;11.656;2022-09-14T13:26:26;26.90;68.20
41924;DHT22;27613;48.116;11.656;2022-09-14T13:28:54;26.70;68.80
41924;DHT22;27613;48.116;11.656;2022-09-14T13:31:40;26.40;68.50
41924;DHT22;27613;48.116;11.656;2022-09-14T13:34:18;26.30;69.40
41924;DHT22;27613;48.116;11.656;2022-09-14T13:36:45;26.30;70.40
41924;DHT22;27613;48.116;11.656;2022-09-14T13:41:47;26.20;71.20
41924;DHT22;27613;48.116;11.656;2022-09-14T13:44:13;26.10;72.20
41924;DHT22;27613;48.116;11.656;2022-09-14T13:46:39;26.30;71.60
41924;DHT22;27613;48.116;11.656;2022-09-14T13:49:06;26.50;71.40
41924;DHT22;27613;48.116;11.656;2022-09-14T13:51:32;26.60;71.30
41924;DHT22;27613;48.116;11.656;2022-09-14T13:54:38;26.40;71.80
41924;DHT22;27613;48.116;11.656;2022-09-14T13:57:18;26.60;71.00
41924;DHT22;27613;48.116;11.656;2022-09-14T14:00:16;26.40;72.20
41924;DHT22;27613;48.116;11.656;2022-09-14T14:02:48;26.20;71.70
41924;DHT22;27613;48.116;11.656;2022-09-14T14:05:25;26.20;71.70
41924;DHT22;27613;48.116;11.656;2022-09-14T14:07:53;26.10;71.60
41924;DHT22;27613;48.116;11.656;2022-09-14T14:10:31;26.00;72.20
41924;DHT22;27613;48.116;11.656;2022-09-14T14:12:58;25.70;72.60
41924;DHT22;27613;48.116;11.656;2022-09-14T14:17:50;25.40;73.40
41924;DHT22;27613;48.116;11.656;2022-09-14T14:25:47;25.10;74.30
41924;DHT22;27613;48.116;11.656;2022-09-14T14:28:21;25.00;74.10
41924;DHT22;27613;48.116;11.656;2022-09-14T14:30:47;24.80;74.00
41924;DHT22;27613;48.116;11.656;2022-09-14T14:33:16;24.80;74.70
41924;DHT22;27613;48.116;11.656;2022-09-14T14:35:44;24.80;74.50
41924;DHT22;27613;48.116;11.656;2022-09-14T14:38:09;24.70;74.70
41924;DHT22;27613;48.116;11.656;2022-09-14T14:40:36;24.50;75.60
41924;DHT22;27613;48.116;11.656;2022-09-14T14:43:02;24.40;75.90
41924;DHT22;27613;48.116;11.656;2022-09-14T14:45:29;24.50;75.20
41924;DHT22;27613;48.116;11.656;2022-09-14T14:47:56;24.30;74.90
41924;DHT22;27613;48.116;11.656;2022-09-14T14:50:31;24.30;75.10
41924;DHT22;27613;48.116;11.656;2022-09-14T14:52:59;24.30;75.30
41924;DHT22;27613;48.116;11.656;2022-09-14T14:55:26;24.00;75.70
41924;DHT22;27613;48.116;11.656;2022-09-14T14:57:58;24.10;76.10
41924;DHT22;27613;48.116;11.656;2022-09-14T15:00:26;24.10;76.80
41924;DHT22;27613;48.116;11.656;2022-09-14T15:02:52;24.00;77.30
41924;DHT22;27613;48.116;11.656;2022-09-14T15:05:18;23.80;78.30
41924;DHT22;27613;48.116;11.656;2022-09-14T15:07:44;24.00;76.90
41924;DHT22;27613;48.116;11.656;2022-09-14T15:10:14;23.80;77.20
41924;DHT22;27613;48.116;11.656;2022-09-14T15:12:40;23.80;77.40
41924;DHT22;27613;48.116;11.656;2022-09-14T15:15:17;23.70;77.10
41924;DHT22;27613;48.116;11.656;2022-09-14T15:17:43;23.80;76.90
41924;DHT22;27613;48.116;11.656;2022-09-14T15:20:09;23.70;78.20
41924;DHT22;27613;48.116;11.656;2022-09-14T15:22:36;23.70;77.20
41924;DHT22;27613;48.116;11.656;2022-09-14T15:25:03;23.60;77.60
41924;DHT22;27613;48.116;11.656;2022-09-14T15:27:28;23.60;77.50
41924;DHT22;27613;48.116;11.656;2022-09-14T15:29:54;23.60;77.40
41924;DHT22;27613;48.116;11.656;2022-09-14T15:32:20;23.60;78.00
41924;DHT22;27613;48.116;11.656;2022-09-14T15:34:45;23.60;78.80
41924;DHT22;27613;48.116;11.656;2022-09-14T15:37:11;23.60;78.00
41924;DHT22;27613;48.116;11.656;2022-09-14T15:39:37;23.60;78.50
41924;DHT22;27613;48.116;11.656;2022-09-14T15:42:03;23.50;80.00
41924;DHT22;27613;48.116;11.656;2022-09-14T15:44:30;23.10;83.10
41924;DHT22;27613;48.116;11.656;2022-09-14T15:46:58;22.80;84.80
41924;DHT22;27613;48.116;11.656;2022-09-14T15:49:24;22.50;86.50
41924;DHT22;27613;48.116;11.656;2022-09-14T15:51:52;22.50;87.70
41924;DHT22;27613;48.116;11.656;2022-09-14T15:54:21;22.40;88.90
41924;DHT22;27613;48.116;11.656;2022-09-14T15:56:51;21.60;98.20
41924;DHT22;27613;48.116;11.656;2022-09-14T15:59:18;20.70;99.90
41924;DHT22;27613;48.116;11.656;2022-09-14T16:01:53;20.50;99.90
41924;DHT22;27613;48.116;11.656;2022-09-14T16:04:19;20.40;99.90
41924;DHT22;27613;48.116;11.656;2022-09-14T16:06:45;20.50;99.90
41924;DHT22;27613;48.116;11.656;2022-09-14T16:09:12;20.30;99.90
41924;DHT22;27613;48.116;11.656;2022-09-14T16:11:40;20.30;99.90
41924;DHT22;27613;48.116;11.656;2022-09-14T16:14:07;20.30;99.90
41924;DHT22;27613;48.116;11.656;2022-09-14T16:16:33;20.40;99.90
41924;DHT22;27613;48.116;11.656;2022-09-14T16:19:07;20.50;99.90
41924;DHT22;27613;48.116;11.656;2022-09-14T16:21:33;20.50;99.90
41924;DHT22;27613;48.116;11.656;2022-09-14T16:24:01;20.50;99.90
41924;DHT22;27613;48.116;11.656;2022-09-14T16:26:32;20.30;99.90
41924;DHT22;27613;48.116;11.656;2022-09-14T16:28:59;20.10;99.90
41924;DHT22;27613;48.116;11.656;2022-09-14T16:31:29;20.10;99.90
41924;DHT22;27613;48.116;11.656;2022-09-14T16:33:58;19.90;99.90
41924;DHT22;27613;48.116;11.656;2022-09-14T16:36:28;19.80;99.90
41924;DHT22;27613;48.116;11.656;2022-09-14T16:38:59;19.70;99.90
41924;DHT22;27613;48.116;11.656;2022-09-14T16:41:26;19.70;99.90
41924;DHT22;27613;48.116;11.656;2022-09-14T16:44:32;19.60;99.90
41924;DHT22;27613;48.116;11.656;2022-09-14T16:46:52;19.70;99.90
41924;DHT22;27613;48.116;11.656;2022-09-14T16:49:18;19.80;99.90
41924;DHT22;27613;48.116;11.656;2022-09-14T16:51:44;19.80;99.90
41924;DHT22;27613;48.116;11.656;2022-09-14T16:54:17;19.80;99.90
41924;DHT22;27613;48.116;11.656;2022-09-14T16:56:44;19.70;99.90
41924;DHT22;27613;48.116;11.656;2022-09-14T16:59:10;19.80;99.90
41924;DHT22;27613;48.116;11.656;2022-09-14T17:01:39;19.80;99.90
41924;DHT22;27613;48.116;11.656;2022-09-14T17:04:10;19.70;99.90
41924;DHT22;27613;48.116;11.656;2022-09-14T17:06:38;19.50;99.90
41924;DHT22;27613;48.116;11.656;2022-09-14T17:09:17;19.40;99.90
41924;DHT22;27613;48.116;11.656;2022-09-14T17:11:44;19.30;99.90
41924;DHT22;27613;48.116;11.656;2022-09-14T17:14:15;19.10;99.90
41924;DHT22;27613;48.116;11.656;2022-09-14T17:16:41;19.10;99.90
41924;DHT22;27613;48.116;11.656;2022-09-14T17:19:06;19.00;99.90
41924;DHT22;27613;48.116;11.656;2022-09-14T17:21:35;19.00;99.90
41924;DHT22;27613;48.116;11.656;2022-09-14T17:24:01;19.00;99.90
41924;DHT22;27613;48.116;11.656;2022-09-14T17:26:28;19.00;99.90
41924;DHT22;27613;48.116;11.656;2022-09-14T17:28:55;19.00;99.90
41924;DHT22;27613;48.116;11.656;2022-09-14T17:31:24;19.00;99.90
41924;DHT22;27613;48.116;11.656;2022-09-14T17:33:52;19.00;99.90
41924;DHT22;27613;48.116;11.656;2022-09-14T17:36:18;19.10;99.90
41924;DHT22;27613;48.116;11.656;2022-09-14T17:38:43;19.10;99.90
41924;DHT22;27613;48.116;11.656;2022-09-14T17:41:14;19.10;99.90
41924;DHT22;27613;48.116;11.656;2022-09-14T17:43:41;19.00;99.90